Time;durP1;ratioP1;P1;durP2;ratioP2;P2;SDS_P1;SDS_P2;PMS_P1;PMS_P2;Temp;Humidity;BMP_temperature;BMP_pressure;BME280_temperature;BME280_humidity;BME280_pressure;Samples;Min_cycle;Max_cycle;Signal;HPM_P1;HPM_P2
2023/12/17 07:59:09;;;;;;;2.70;1.20;;;6.70;99.90;;;;;;6105835;23;20931;31
2023/12/17 08:01:35;;;;;;;2.20;1.37;;;6.70;99.90;;;;;;4934912;28;20247;-56
2023/12/17 08:04:01;;;;;;;2.23;1.30;;;6.70;99.90;;;;;;4928355;29;20187;-51
2023/12/17 08:06:26;;;;;;;1.57;1.00;;;6.70;99.90;;;;;;4932656;29;20183;-51
2023/12/17 08:08:53;;;;;;;2.40;1.20;;;6.80;99.90;;;;;;4931830;29;20180;-51
2023/12/17 08:11:19;;;;;;;1.83;1.10;;;6.80;99.90;;;;;;4932545;29;20545;-56
2023/12/17 08:13:45;;;;;;;2.53;1.70;;;6.80;99.90;;;;;;4931544;29;20183;-54
2023/12/17 08:16:11;;;;;;;2.80;1.60;;;6.90;99.90;;;;;;4932382;29;20254;-50
2023/12/17 08:18:36;;;;;;;2.63;1.30;;;6.90;99.90;;;;;;4931961;29;20197;-52
2023/12/17 08:21:02;;;;;;;2.83;1.60;;;6.90;99.90;;;;;;4932708;29;20623;-51
2023/12/17 08:23:28;;;;;;;4.23;2.00;;;6.80;99.90;;;;;;4932205;29;20186;-53
2023/12/17 08:25:54;;;;;;;6.23;2.13;;;6.80;99.90;;;;;;4932424;29;20226;-54
2023/12/17 08:28:20;;;;;;;3.50;2.00;;;6.80;99.90;;;;;;4932127;29;20270;-55
2023/12/17 08:30:46;;;;;;;4.10;2.00;;;6.80;99.90;;;;;;4932107;29;20230;-55
2023/12/17 08:33:12;;;;;;;4.47;2.20;;;6.80;99.90;;;;;;4932400;29;20279;-52
2023/12/17 08:35:38;;;;;;;4.10;1.87;;;6.80;99.90;;;;;;4932466;29;20179;-54
2023/12/17 08:38:06;;;;;;;5.60;2.47;;;6.80;99.90;;;;;;4932692;29;20183;-54
2023/12/17 08:40:38;;;;;;;4.00;2.00;;;6.80;99.90;;;;;;4931717;29;20220;-51
2023/12/17 08:43:06;;;;;;;4.53;2.23;;;6.80;99.90;;;;;;4932175;29;20171;-50
2023/12/17 08:45:32;;;;;;;3.87;2.00;;;6.90;99.90;;;;;;4932627;29;20281;-52
2023/12/17 08:47:58;;;;;;;4.20;1.70;;;6.90;99.90;;;;;;4932511;29;20186;-54
2023/12/17 08:50:24;;;;;;;4.53;2.47;;;6.80;99.90;;;;;;4931470;29;20214;-51
2023/12/17 08:52:50;;;;;;;4.63;2.20;;;6.90;99.90;;;;;;4932522;29;20180;-51
2023/12/17 08:55:15;;;;;;;3.80;2.00;;;6.90;99.90;;;;;;4931962;29;20191;-50
2023/12/17 08:57:41;;;;;;;4.00;2.43;;;6.90;99.90;;;;;;4931902;29;20188;-54
2023/12/17 09:00:07;;;;;;;4.20;2.70;;;7.00;99.90;;;;;;4932342;29;20223;-51
2023/12/17 09:02:36;;;;;;;4.53;2.77;;;7.00;99.90;;;;;;4935990;29;20187;-53
2023/12/17 09:05:05;;;;;;;4.57;2.40;;;7.10;99.90;;;;;;4935988;29;20570;-51
2023/12/17 09:07:30;;;;;;;5.67;3.17;;;7.10;99.90;;;;;;4935891;29;20565;-57
2023/12/17 09:09:56;;;;;;;5.33;3.27;;;7.30;99.90;;;;;;4935177;29;20215;-51
2023/12/17 09:12:21;;;;;;;4.57;2.90;;;7.30;99.90;;;;;;4936182;29;20189;-51
2023/12/17 09:14:47;;;;;;;4.57;2.23;;;7.30;99.90;;;;;;4935898;29;20214;-54
2023/12/17 09:17:13;;;;;;;2.43;1.73;;;7.30;99.90;;;;;;4936184;29;20183;-54
2023/12/17 09:19:38;;;;;;;3.87;2.70;;;7.30;99.90;;;;;;4935221;29;20207;-54
2023/12/17 09:22:04;;;;;;;4.50;2.30;;;7.40;99.90;;;;;;4935698;29;20627;-50
2023/12/17 09:24:30;;;;;;;4.50;2.00;;;7.30;99.90;;;;;;4935430;29;20690;-51
2023/12/17 09:26:55;;;;;;;4.53;1.87;;;7.40;99.90;;;;;;4935708;29;20186;-50
2023/12/17 09:29:21;;;;;;;2.93;1.70;;;7.40;99.90;;;;;;4934687;29;20218;-53
2023/12/17 09:31:47;;;;;;;3.73;1.87;;;7.40;99.90;;;;;;4934469;29;20186;-55
2023/12/17 09:34:14;;;;;;;4.70;2.10;;;7.50;99.90;;;;;;4935355;29;20723;-55
2023/12/17 09:36:40;;;;;;;7.77;2.20;;;7.60;99.90;;;;;;4935730;29;20182;-53
2023/12/17 09:39:07;;;;;;;3.77;2.27;;;7.60;99.90;;;;;;4934657;29;20195;-51
2023/12/17 09:41:32;;;;;;;3.97;2.17;;;7.50;99.90;;;;;;4935131;29;20186;-51
2023/12/17 09:43:59;;;;;;;5.03;2.30;;;7.60;99.90;;;;;;4935489;29;20179;-53
2023/12/17 09:46:24;;;;;;;6.13;2.80;;;7.50;99.90;;;;;;4935216;29;20180;-55
2023/12/17 09:48:50;;;;;;;4.43;2.43;;;7.40;99.90;;;;;;4934406;29;20652;-51
2023/12/17 09:51:16;;;;;;;5.23;2.73;;;7.50;99.90;;;;;;4935304;29;20274;-51
2023/12/17 09:53:42;;;;;;;6.17;2.50;;;7.60;99.90;;;;;;4935969;29;20175;-52
2023/12/17 09:56:08;;;;;;;10.73;5.03;;;7.60;99.90;;;;;;4934891;29;20186;-55
2023/12/17 09:58:34;;;;;;;4.17;2.30;;;7.60;99.90;;;;;;4934712;29;20290;-51
2023/12/17 10:00:59;;;;;;;2.73;1.60;;;7.70;99.90;;;;;;4935020;29;20305;-54
2023/12/17 10:03:25;;;;;;;2.87;1.60;;;7.70;99.90;;;;;;4934964;29;20191;-51
2023/12/17 10:05:52;;;;;;;1.77;1.27;;;7.70;99.90;;;;;;4935062;29;20183;-52
2023/12/17 10:08:18;;;;;;;2.87;1.70;;;7.70;99.90;;;;;;4934723;29;20183;-51
2023/12/17 10:10:44;;;;;;;4.03;1.70;;;7.70;99.90;;;;;;4933764;29;20566;-57
2023/12/17 10:13:16;;;;;;;5.43;3.20;;;7.80;99.90;;;;;;4934802;29;20198;-56
2023/12/17 10:15:42;;;;;;;3.60;1.73;;;7.80;99.90;;;;;;4934921;29;20179;-52
2023/12/17 10:18:08;;;;;;;2.47;1.50;;;7.90;99.90;;;;;;4934805;29;20226;-51
2023/12/17 10:20:34;;;;;;;3.17;1.63;;;7.90;99.90;;;;;;4934372;29;20202;-62
2023/12/17 10:23:03;;;;;;;2.40;1.60;;;8.10;99.90;;;;;;4934660;29;20611;-53
2023/12/17 10:25:28;;;;;;;2.40;1.43;;;8.20;99.90;;;;;;4934357;29;20243;-51
2023/12/17 10:28:03;;;;;;;2.80;1.47;;;8.10;99.90;;;;;;4934618;29;20179;-53
2023/12/17 10:30:33;;;;;;;2.40;1.63;;;8.00;99.90;;;;;;4933911;29;20668;-57
2023/12/17 10:33:01;;;;;;;3.13;1.93;;;8.10;99.90;;;;;;4934562;29;20187;-57
2023/12/17 10:35:28;;;;;;;3.37;1.80;;;8.20;99.90;;;;;;4934534;29;20199;-56
2023/12/17 10:37:57;;;;;;;3.20;1.77;;;8.20;99.90;;;;;;4934685;29;20183;-56
2023/12/17 10:40:24;;;;;;;2.40;1.73;;;8.20;99.90;;;;;;4933595;29;20290;-54
2023/12/17 10:42:51;;;;;;;4.13;1.90;;;8.10;99.90;;;;;;4934222;29;20230;-57
2023/12/17 10:45:20;;;;;;;3.03;2.03;;;8.10;99.90;;;;;;4934225;29;20190;-54
2023/12/17 10:47:49;;;;;;;5.00;2.37;;;8.00;99.90;;;;;;4934329;29;20183;-57
2023/12/17 10:50:17;;;;;;;8.00;3.23;;;8.00;99.90;;;;;;4933778;29;20680;-52
2023/12/17 10:52:45;;;;;;;5.67;3.20;;;8.20;99.90;;;;;;4934425;29;20652;-54
2023/12/17 10:55:10;;;;;;;7.03;3.50;;;8.30;99.90;;;;;;4933939;29;20552;-56
2023/12/17 10:57:39;;;;;;;8.07;4.10;;;8.20;99.90;;;;;;4934278;29;20195;-54
2023/12/17 11:00:07;;;;;;;10.03;3.83;;;8.10;99.90;;;;;;4933292;29;20681;-57
2023/12/17 11:02:33;;;;;;;7.77;4.10;;;8.20;99.90;;;;;;4933914;29;20605;-56
2023/12/17 11:04:59;;;;;;;6.67;3.60;;;8.20;99.90;;;;;;4933926;29;20504;-57
2023/12/17 11:07:26;;;;;;;6.00;3.60;;;8.30;99.90;;;;;;4934077;29;20183;-54
2023/12/17 11:09:52;;;;;;;8.20;4.20;;;8.40;99.90;;;;;;4933267;29;20206;-57
2023/12/17 11:12:18;;;;;;;9.77;4.00;;;8.30;99.90;;;;;;4933850;29;20183;-55
2023/12/17 11:14:44;;;;;;;7.43;3.57;;;8.20;99.90;;;;;;4933872;29;20238;-57
2023/12/17 11:17:12;;;;;;;6.60;4.37;;;8.30;99.90;;;;;;4933530;29;20183;-56
2023/12/17 11:19:52;;;;;;;7.03;3.73;;;8.40;99.90;;;;;;4932851;29;20284;-56
2023/12/17 11:22:18;;;;;;;6.30;3.37;;;8.50;99.90;;;;;;4932942;29;20179;-56
2023/12/17 11:24:43;;;;;;;9.03;3.87;;;8.60;99.90;;;;;;4933440;29;20191;-54
2023/12/17 11:27:11;;;;;;;8.63;3.77;;;8.60;99.90;;;;;;4933594;29;20194;-56
2023/12/17 11:29:41;;;;;;;8.07;4.00;;;8.60;99.90;;;;;;4932757;29;20671;-56
2023/12/17 11:32:07;;;;;;;8.73;3.67;;;8.70;99.90;;;;;;4933453;29;20196;-53
2023/12/17 11:34:33;;;;;;;7.30;3.80;;;8.60;99.90;;;;;;4933465;29;20210;-52
2023/12/17 11:37:00;;;;;;;6.70;3.87;;;8.60;99.90;;;;;;4933328;29;20187;-57
2023/12/17 11:39:30;;;;;;;7.67;4.03;;;8.60;99.90;;;;;;4932386;29;20309;-58
2023/12/17 11:41:56;;;;;;;6.97;4.33;;;8.60;99.90;;;;;;4933081;29;20335;-57
2023/12/17 11:44:22;;;;;;;10.33;5.07;;;8.70;99.90;;;;;;4933074;29;20215;-55
2023/12/17 11:46:51;;;;;;;6.90;4.07;;;8.70;99.90;;;;;;4933353;29;20507;-57
2023/12/17 11:49:26;;;;;;;6.77;4.27;;;8.70;99.90;;;;;;4932506;29;20234;-57
2023/12/17 11:51:52;;;;;;;10.13;4.40;;;8.70;99.90;;;;;;4933092;29;20190;-57
2023/12/17 11:54:25;;;;;;;7.30;4.50;;;8.80;99.90;;;;;;4933127;29;20238;-58
2023/12/17 11:56:51;;;;;;;7.43;4.73;;;8.60;99.90;;;;;;4933046;29;20191;-54
2023/12/17 11:59:33;;;;;;;10.17;5.13;;;8.70;99.90;;;;;;4931979;29;20326;-55
2023/12/17 12:02:03;;;;;;;8.03;3.87;;;8.70;99.90;;;;;;4940969;29;20187;-54
2023/12/17 12:04:41;;;;;;;6.13;4.20;;;8.70;99.90;;;;;;4932855;29;20210;-55
2023/12/17 12:07:08;;;;;;;7.37;4.80;;;8.70;99.90;;;;;;4932886;29;20617;-55
2023/12/17 12:09:33;;;;;;;10.00;4.67;;;8.70;99.90;;;;;;4931817;29;20368;-56
2023/12/17 12:11:59;;;;;;;11.87;5.63;;;8.80;99.90;;;;;;4932856;29;20273;-57
2023/12/17 12:14:25;;;;;;;6.97;4.03;;;8.80;99.90;;;;;;4932886;29;20187;-53
2023/12/17 12:16:51;;;;;;;8.07;4.53;;;8.90;99.90;;;;;;4932988;29;20190;-58
2023/12/17 12:19:18;;;;;;;7.93;3.90;;;8.90;99.90;;;;;;4931656;29;20531;-57
2023/12/17 12:21:48;;;;;;;9.33;4.03;;;9.00;99.90;;;;;;4932639;29;20179;-57
2023/12/17 12:24:19;;;;;;;7.60;3.60;;;9.10;99.90;;;;;;4932980;29;20171;-56
2023/12/17 12:26:45;;;;;;;13.10;6.13;;;9.20;99.90;;;;;;4925713;29;20183;-57
2023/12/17 12:29:12;;;;;;;7.63;3.97;;;9.10;99.90;;;;;;4931838;29;20554;-57
2023/12/17 12:31:38;;;;;;;5.87;3.50;;;9.10;99.90;;;;;;4932243;29;20592;-57
2023/12/17 12:34:04;;;;;;;7.67;4.00;;;9.20;99.90;;;;;;4931853;29;20539;-57
2023/12/17 12:36:45;;;;;;;5.93;3.40;;;9.00;99.90;;;;;;4930802;29;20192;-55
2023/12/17 12:39:11;;;;;;;8.13;4.27;;;8.90;99.90;;;;;;4931878;29;20202;-54
2023/12/17 12:41:45;;;;;;;7.83;4.00;;;8.90;99.90;;;;;;4932487;29;20180;-57
2023/12/17 12:44:15;;;;;;;7.57;4.20;;;9.00;99.90;;;;;;4932889;29;20186;-55
2023/12/17 12:46:46;;;;;;;5.87;3.50;;;9.00;99.90;;;;;;4924826;29;20258;-57
2023/12/17 12:49:12;;;;;;;9.30;4.20;;;8.90;99.90;;;;;;4931718;29;20198;-59
2023/12/17 12:51:37;;;;;;;6.90;3.77;;;9.00;99.90;;;;;;4932204;29;20641;-58
2023/12/17 12:54:03;;;;;;;6.53;3.50;;;9.00;99.90;;;;;;4932103;29;20184;-56
2023/12/17 12:56:28;;;;;;;6.67;4.13;;;9.20;99.90;;;;;;4932227;29;20194;-57
2023/12/17 12:58:54;;;;;;;6.10;3.67;;;9.20;99.90;;;;;;4931701;29;20190;-56
2023/12/17 13:01:20;;;;;;;5.53;3.13;;;9.20;99.90;;;;;;4931125;29;20199;-60
2023/12/17 13:03:45;;;;;;;9.57;4.00;;;9.20;99.90;;;;;;4930902;29;20190;-57
2023/12/17 13:06:11;;;;;;;12.50;5.80;;;9.30;99.90;;;;;;4931145;29;20589;-52
2023/12/17 13:08:37;;;;;;;14.27;6.17;;;9.30;99.90;;;;;;4930142;29;20195;-56
2023/12/17 13:11:02;;;;;;;8.33;4.17;;;9.30;99.90;;;;;;4931201;29;20591;-55
2023/12/17 13:13:28;;;;;;;6.30;3.87;;;9.30;99.90;;;;;;4931713;29;20196;-55
2023/12/17 13:15:54;;;;;;;8.00;4.57;;;9.10;99.90;;;;;;4931392;29;20195;-58
2023/12/17 13:18:19;;;;;;;8.03;4.53;;;9.00;99.90;;;;;;4931605;29;20274;-53
2023/12/17 13:20:45;;;;;;;10.50;4.80;;;9.00;99.90;;;;;;4931719;29;20211;-56
2023/12/17 13:23:11;;;;;;;10.43;4.93;;;9.00;99.90;;;;;;4932309;29;20221;-55
2023/12/17 13:25:36;;;;;;;7.47;4.50;;;9.00;99.90;;;;;;4931904;29;20207;-55
2023/12/17 13:28:02;;;;;;;7.80;4.57;;;9.00;99.90;;;;;;4932298;29;20186;-54
2023/12/17 13:30:29;;;;;;;8.00;4.87;;;9.00;99.90;;;;;;4931168;29;20211;-54
2023/12/17 13:33:02;;;;;;;7.00;4.13;;;9.00;99.90;;;;;;4932122;29;20190;-53
2023/12/17 13:35:27;;;;;;;8.20;4.37;;;9.10;99.90;;;;;;4932051;29;20247;-55
2023/12/17 13:37:53;;;;;;;8.70;4.57;;;9.10;99.90;;;;;;4932116;29;20187;-56
2023/12/17 13:40:18;;;;;;;8.47;4.07;;;9.20;99.90;;;;;;4930878;29;20302;-57
2023/12/17 13:42:45;;;;;;;6.97;4.27;;;9.00;99.90;;;;;;4932033;29;20247;-57
2023/12/17 13:45:10;;;;;;;8.50;4.23;;;8.80;99.90;;;;;;4931934;29;20183;-54
2023/12/17 13:47:36;;;;;;;9.47;5.03;;;8.80;99.90;;;;;;4935604;29;20206;-55
2023/12/17 13:50:02;;;;;;;10.90;5.20;;;8.80;99.90;;;;;;4934856;29;20262;-54
2023/12/17 13:52:27;;;;;;;7.63;4.77;;;8.80;99.90;;;;;;4935322;29;20187;-55
2023/12/17 13:54:54;;;;;;;7.73;3.90;;;8.80;99.90;;;;;;4935445;29;20195;-52
2023/12/17 13:57:20;;;;;;;9.10;4.47;;;8.60;99.90;;;;;;4935056;29;20203;-52
2023/12/17 13:59:47;;;;;;;9.33;5.10;;;8.50;99.90;;;;;;4934087;29;20582;-56
2023/12/17 14:02:13;;;;;;;9.23;4.20;;;8.40;99.90;;;;;;4935688;29;20215;-56
2023/12/17 14:04:39;;;;;;;9.00;4.60;;;8.30;99.90;;;;;;4935229;29;20660;-54
2023/12/17 14:07:04;;;;;;;8.57;4.57;;;8.40;99.90;;;;;;4935103;29;20266;-54
2023/12/17 14:09:30;;;;;;;17.83;8.07;;;8.40;99.90;;;;;;4934264;29;20243;-57
2023/12/17 14:11:55;;;;;;;13.40;5.57;;;8.30;99.90;;;;;;4934909;29;20198;-55
2023/12/17 14:14:21;;;;;;;8.67;5.00;;;8.30;99.90;;;;;;4934685;29;20195;-55
2023/12/17 14:16:46;;;;;;;10.30;4.87;;;8.30;99.90;;;;;;4934950;29;20251;-53
2023/12/17 14:19:12;;;;;;;10.03;4.90;;;8.40;99.90;;;;;;4934296;29;20202;-53
2023/12/17 14:21:38;;;;;;;11.03;5.03;;;8.30;99.90;;;;;;4934493;29;20211;-55
2023/12/17 14:24:04;;;;;;;9.87;5.30;;;8.10;99.90;;;;;;4934728;29;20961;-55
2023/12/17 14:26:30;;;;;;;14.03;5.50;;;8.00;99.90;;;;;;4934693;29;20234;-56
2023/12/17 14:28:55;;;;;;;10.73;5.20;;;8.10;99.90;;;;;;4933896;29;20183;-55
2023/12/17 14:31:29;;;;;;;11.20;5.50;;;8.00;99.90;;;;;;4934379;29;20190;-54
2023/12/17 14:33:54;;;;;;;10.17;5.47;;;8.00;99.90;;;;;;4934716;29;20298;-55
2023/12/17 14:36:20;;;;;;;11.20;5.23;;;8.00;99.90;;;;;;4934472;29;20695;-54
2023/12/17 14:38:46;;;;;;;11.70;5.63;;;7.90;99.90;;;;;;4932330;29;20191;-55
2023/12/17 14:41:11;;;;;;;12.23;5.57;;;7.90;99.90;;;;;;4933192;29;20215;-53
2023/12/17 14:43:37;;;;;;;11.10;5.83;;;7.80;99.90;;;;;;4932778;29;20255;-56
2023/12/17 14:46:03;;;;;;;11.17;6.33;;;7.80;99.90;;;;;;4934373;29;20179;-55
2023/12/17 14:48:28;;;;;;;12.37;5.20;;;7.80;99.90;;;;;;4933936;29;20491;-57
2023/12/17 14:50:54;;;;;;;14.77;6.40;;;7.80;99.90;;;;;;4934313;29;20214;-53
2023/12/17 14:53:20;;;;;;;11.43;6.03;;;7.70;99.90;;;;;;4934064;29;20198;-56
2023/12/17 14:55:45;;;;;;;13.70;6.43;;;7.70;99.90;;;;;;4934053;29;20684;-56
2023/12/17 14:58:12;;;;;;;12.80;5.67;;;7.60;99.90;;;;;;4932751;29;20233;-58
2023/12/17 15:00:39;;;;;;;12.53;5.37;;;7.60;99.90;;;;;;4933287;29;20660;-55
2023/12/17 15:03:04;;;;;;;11.47;5.83;;;7.60;99.90;;;;;;4932232;29;20187;-57
2023/12/17 15:05:30;;;;;;;12.40;6.23;;;7.40;99.90;;;;;;4933416;29;20255;-53
2023/12/17 15:07:56;;;;;;;14.30;6.17;;;7.40;99.90;;;;;;4933780;29;20202;-57
2023/12/17 15:10:21;;;;;;;14.23;6.80;;;7.40;99.90;;;;;;4933718;29;20207;-56
2023/12/17 15:12:47;;;;;;;15.53;7.40;;;7.50;99.90;;;;;;4934370;29;20199;-58
2023/12/17 15:15:12;;;;;;;12.70;6.43;;;7.50;99.90;;;;;;4934666;29;20183;-58
2023/12/17 15:17:39;;;;;;;15.33;6.63;;;7.50;99.90;;;;;;4933437;29;20296;-57
2023/12/17 15:20:07;;;;;;;14.07;6.23;;;7.50;99.90;;;;;;4929964;29;20214;-58
2023/12/17 15:22:33;;;;;;;10.77;5.57;;;7.40;99.90;;;;;;4932893;29;20606;-57
2023/12/17 15:24:58;;;;;;;10.80;5.50;;;7.30;99.90;;;;;;4934504;29;20183;-54
2023/12/17 15:27:24;;;;;;;13.93;6.90;;;7.30;99.90;;;;;;4934034;29;20195;-52
2023/12/17 15:29:50;;;;;;;13.40;7.23;;;7.30;99.90;;;;;;4933561;29;20242;-56
2023/12/17 15:32:16;;;;;;;14.10;6.20;;;7.30;99.90;;;;;;4934425;29;20230;-55
2023/12/17 15:34:41;;;;;;;13.93;6.80;;;7.30;99.90;;;;;;4933934;29;20626;-57
2023/12/17 15:37:07;;;;;;;16.63;6.87;;;7.30;99.90;;;;;;4934070;29;20222;-55
2023/12/17 15:39:33;;;;;;;17.83;8.27;;;7.30;99.90;;;;;;4933053;29;20225;-56
2023/12/17 15:41:59;;;;;;;36.83;13.23;;;7.30;99.90;;;;;;4933879;29;20239;-53
2023/12/17 15:44:28;;;;;;;18.17;8.57;;;7.20;99.90;;;;;;4933837;29;20246;-56
2023/12/17 15:46:53;;;;;;;15.93;8.27;;;7.20;99.90;;;;;;4934125;29;20187;-56
2023/12/17 15:49:20;;;;;;;14.60;6.43;;;7.20;99.90;;;;;;4933131;29;20218;-53
2023/12/17 15:51:46;;;;;;;14.50;6.20;;;7.30;99.90;;;;;;4934139;29;20201;-53
2023/12/17 15:54:12;;;;;;;19.67;6.90;;;7.20;99.90;;;;;;4933722;29;20194;-57
2023/12/17 15:56:37;;;;;;;16.77;7.60;;;7.00;99.90;;;;;;4933838;29;20823;-56
2023/12/17 15:59:03;;;;;;;15.63;6.73;;;7.00;99.90;;;;;;4933124;29;20207;-54
2023/12/17 16:01:29;;;;;;;17.47;8.10;;;6.90;99.90;;;;;;4933368;29;20218;-57
2023/12/17 16:03:54;;;;;;;19.77;8.23;;;6.90;99.90;;;;;;4933954;29;20314;-56
2023/12/17 16:06:20;;;;;;;34.83;12.23;;;6.90;99.90;;;;;;4933511;29;20192;-58
2023/12/17 16:08:46;;;;;;;17.63;8.37;;;7.00;99.90;;;;;;4932486;29;20179;-56
2023/12/17 16:11:12;;;;;;;17.33;7.90;;;7.10;99.90;;;;;;4933418;29;20186;-52
2023/12/17 16:13:37;;;;;;;15.70;8.13;;;7.00;99.90;;;;;;4933173;29;20203;-54
2023/12/17 16:16:04;;;;;;;14.67;6.73;;;7.00;99.90;;;;;;4933427;29;20191;-57
2023/12/17 16:18:30;;;;;;;12.60;6.20;;;6.90;99.90;;;;;;4932575;29;20199;-53
2023/12/17 16:20:56;;;;;;;17.97;6.90;;;6.90;99.90;;;;;;4933531;29;20239;-53
2023/12/17 16:23:21;;;;;;;14.67;6.80;;;7.00;99.90;;;;;;4933232;29;20210;-53
2023/12/17 16:25:47;;;;;;;17.67;8.50;;;7.00;99.90;;;;;;4933382;29;20360;-56
2023/12/17 16:28:13;;;;;;;28.77;9.07;;;6.90;99.90;;;;;;4933652;29;20179;-53
2023/12/17 16:30:40;;;;;;;17.93;8.27;;;6.80;99.90;;;;;;4932493;29;20234;-56
2023/12/17 16:33:06;;;;;;;24.03;12.17;;;6.80;99.90;;;;;;4933377;29;20179;-54
2023/12/17 16:35:31;;;;;;;19.23;9.07;;;6.80;99.90;;;;;;4933398;29;20197;-58
2023/12/17 16:37:57;;;;;;;19.07;9.87;;;6.80;99.90;;;;;;4933398;29;20270;-56
2023/12/17 16:40:22;;;;;;;15.37;7.60;;;6.70;99.90;;;;;;4932202;29;20223;-56
2023/12/17 16:42:48;;;;;;;15.60;7.17;;;6.80;99.90;;;;;;4933131;29;20191;-54
2023/12/17 16:45:14;;;;;;;18.60;6.70;;;6.70;99.90;;;;;;4932528;29;20205;-54
2023/12/17 16:47:40;;;;;;;16.70;7.57;;;6.70;99.90;;;;;;4933040;29;20202;-55
2023/12/17 16:50:06;;;;;;;23.23;12.47;;;6.60;99.90;;;;;;4932384;29;20299;-56
2023/12/17 16:52:34;;;;;;;16.40;9.17;;;6.70;99.90;;;;;;4932956;29;20270;-53
2023/12/17 16:55:00;;;;;;;16.70;7.07;;;6.60;99.90;;;;;;4933333;29;20193;-58
2023/12/17 16:57:26;;;;;;;20.17;10.20;;;6.60;99.90;;;;;;4932959;29;20555;-61
2023/12/17 16:59:52;;;;;;;14.30;7.07;;;6.60;99.90;;;;;;4931938;29;20219;-57
2023/12/17 17:02:18;;;;;;;14.70;7.10;;;6.60;99.90;;;;;;4932055;29;20230;-58
2023/12/17 17:04:44;;;;;;;15.20;7.23;;;6.70;99.90;;;;;;4932152;29;20191;-58
2023/12/17 17:07:13;;;;;;;18.57;8.87;;;6.70;99.90;;;;;;4932125;29;20266;-58
2023/12/17 17:09:40;;;;;;;17.17;8.80;;;6.70;99.90;;;;;;4931333;29;21095;-55
2023/12/17 17:12:09;;;;;;;18.70;8.50;;;6.70;99.90;;;;;;4930930;29;20199;-58
2023/12/17 17:14:36;;;;;;;17.43;7.37;;;6.70;99.90;;;;;;4930457;29;20592;-57
2023/12/17 17:17:02;;;;;;;19.33;7.50;;;6.80;99.90;;;;;;4930641;29;20317;-57
2023/12/17 17:19:28;;;;;;;21.73;9.67;;;6.70;99.90;;;;;;4930376;29;20247;-57
2023/12/17 17:21:53;;;;;;;16.43;8.30;;;6.70;99.90;;;;;;4934019;29;20222;-57
2023/12/17 17:24:20;;;;;;;15.37;7.67;;;6.80;99.90;;;;;;4935168;29;20664;-53
2023/12/17 17:26:45;;;;;;;17.17;7.07;;;6.80;99.90;;;;;;4935479;29;20179;-57
2023/12/17 17:29:11;;;;;;;11.23;5.77;;;6.80;99.90;;;;;;4934459;29;20222;-57
2023/12/17 17:31:36;;;;;;;15.80;5.87;;;6.70;99.90;;;;;;4935198;29;20191;-54
2023/12/17 17:34:03;;;;;;;12.37;5.90;;;6.60;99.90;;;;;;4935234;29;20266;-58
2023/12/17 17:36:30;;;;;;;15.70;6.10;;;6.60;99.90;;;;;;4934706;29;20254;-58
2023/12/17 17:38:56;;;;;;;13.87;6.43;;;6.40;99.90;;;;;;4934380;29;20187;-56
2023/12/17 17:41:21;;;;;;;11.53;5.53;;;6.40;99.90;;;;;;4935130;29;20206;-56
2023/12/17 17:43:47;;;;;;;11.60;5.70;;;6.50;99.90;;;;;;4934998;29;20211;-54
2023/12/17 17:46:12;;;;;;;10.77;5.40;;;6.50;99.90;;;;;;4935076;29;20570;-54
2023/12/17 17:48:38;;;;;;;13.33;6.30;;;6.50;99.90;;;;;;4934480;29;20274;-56
2023/12/17 17:51:05;;;;;;;13.30;5.73;;;6.40;99.90;;;;;;4934996;29;20653;-58
2023/12/17 17:53:32;;;;;;;12.87;6.27;;;6.40;99.90;;;;;;4935035;29;20294;-58
2023/12/17 17:55:58;;;;;;;18.63;7.83;;;6.50;99.90;;;;;;4935039;29;20195;-58
2023/12/17 17:58:24;;;;;;;14.77;6.77;;;6.50;99.90;;;;;;4934192;29;20218;-58
2023/12/17 18:00:50;;;;;;;18.93;7.97;;;6.50;99.90;;;;;;4897130;29;1044855;-55
2023/12/17 18:03:16;;;;;;;12.70;6.13;;;6.50;99.90;;;;;;4936040;29;20206;-56
2023/12/17 18:05:42;;;;;;;12.30;6.20;;;6.50;99.90;;;;;;4935430;29;20195;-58
2023/12/17 18:08:08;;;;;;;14.43;6.70;;;6.50;99.90;;;;;;4935810;29;20210;-56
2023/12/17 18:10:34;;;;;;;14.87;7.10;;;6.50;99.90;;;;;;4934918;29;20286;-56
2023/12/17 18:13:00;;;;;;;14.73;6.30;;;6.50;99.90;;;;;;4935861;29;20282;-56
2023/12/17 18:15:27;;;;;;;15.80;7.60;;;6.60;99.90;;;;;;4935675;29;20195;-52
2023/12/17 18:17:53;;;;;;;19.00;9.07;;;6.60;99.90;;;;;;4934972;29;20183;-56
2023/12/17 18:20:20;;;;;;;18.87;8.50;;;6.60;99.90;;;;;;4934471;29;20409;-58
2023/12/17 18:22:46;;;;;;;15.60;7.30;;;6.50;99.90;;;;;;4935618;29;20187;-58
2023/12/17 18:25:11;;;;;;;20.20;7.93;;;6.50;99.90;;;;;;4935276;29;20206;-58
2023/12/17 18:27:37;;;;;;;18.17;8.03;;;6.50;99.90;;;;;;4935077;29;20191;-58
2023/12/17 18:30:03;;;;;;;18.73;8.03;;;6.50;99.90;;;;;;4934559;29;20211;-56
2023/12/17 18:32:28;;;;;;;19.57;8.60;;;6.60;99.90;;;;;;4935467;29;20195;-58
2023/12/17 18:34:54;;;;;;;24.47;8.93;;;6.60;99.90;;;;;;4933984;29;20195;-58
2023/12/17 18:37:21;;;;;;;23.67;9.50;;;6.60;99.90;;;;;;4935093;29;20198;-57
2023/12/17 18:39:48;;;;;;;24.23;9.93;;;6.60;99.90;;;;;;4934454;29;20250;-58
2023/12/17 18:42:14;;;;;;;25.07;10.77;;;6.60;99.90;;;;;;4935225;29;20191;-56
2023/12/17 18:44:39;;;;;;;19.80;9.00;;;6.60;99.90;;;;;;4934414;29;20187;-57
2023/12/17 18:47:07;;;;;;;23.20;9.17;;;6.60;99.90;;;;;;4935043;29;20179;-58
2023/12/17 18:49:36;;;;;;;24.07;10.27;;;6.50;99.90;;;;;;4934285;29;20764;-57
2023/12/17 18:52:02;;;;;;;15.80;7.37;;;6.60;99.90;;;;;;4935328;29;20183;-56
2023/12/17 18:54:28;;;;;;;18.63;8.00;;;6.50;99.90;;;;;;4934443;29;20195;-57
2023/12/17 18:56:53;;;;;;;14.37;6.60;;;6.50;99.90;;;;;;4934685;29;20195;-57
2023/12/17 18:59:19;;;;;;;16.63;7.20;;;6.40;99.90;;;;;;4933916;29;20223;-56
2023/12/17 19:01:44;;;;;;;14.33;6.87;;;6.30;99.90;;;;;;4934593;29;20190;-57
2023/12/17 19:04:10;;;;;;;16.20;7.43;;;6.40;99.90;;;;;;4935275;29;20226;-58
2023/12/17 19:06:35;;;;;;;17.77;7.20;;;6.40;99.90;;;;;;4934849;29;20557;-58
2023/12/17 19:09:04;;;;;;;24.97;8.63;;;6.40;99.90;;;;;;4965069;28;20559;-57
2023/12/17 19:11:31;;;;;;;19.27;7.33;;;6.50;99.90;;;;;;4934734;29;20218;-55
2023/12/17 19:13:57;;;;;;;19.17;7.10;;;6.50;99.90;;;;;;4934337;29;20180;-57
2023/12/17 19:16:23;;;;;;;17.67;7.27;;;6.50;99.90;;;;;;4934250;29;20637;-57
2023/12/17 19:18:49;;;;;;;15.43;6.53;;;6.40;99.90;;;;;;4933837;29;20191;-55
2023/12/17 19:21:15;;;;;;;15.20;6.90;;;6.50;99.90;;;;;;4934729;29;20210;-57
2023/12/17 19:23:40;;;;;;;21.50;8.13;;;6.50;99.90;;;;;;4934311;29;20295;-55
2023/12/17 19:26:10;;;;;;;14.23;6.47;;;6.50;99.90;;;;;;4934224;29;20675;-57
2023/12/17 19:28:36;;;;;;;22.97;8.47;;;6.50;99.90;;;;;;4933352;29;20644;-56
2023/12/17 19:31:02;;;;;;;16.07;7.87;;;6.60;99.90;;;;;;4934043;29;20199;-57
2023/12/17 19:33:27;;;;;;;20.93;8.27;;;6.60;99.90;;;;;;4934412;29;20296;-57
2023/12/17 19:35:56;;;;;;;19.50;8.63;;;6.60;99.90;;;;;;4934178;29;20272;-58
2023/12/17 19:38:23;;;;;;;22.53;8.77;;;6.60;99.90;;;;;;4933466;29;20189;-57
2023/12/17 19:40:49;;;;;;;29.17;10.63;;;6.60;99.90;;;;;;4933848;29;20231;-57
2023/12/17 19:43:14;;;;;;;27.63;11.00;;;6.60;99.90;;;;;;4939206;28;20178;-58
2023/12/17 19:45:40;;;;;;;28.43;11.70;;;6.60;99.90;;;;;;4934422;28;20191;-58
2023/12/17 19:48:06;;;;;;;27.63;11.63;;;6.60;99.90;;;;;;4933909;29;20258;-58
2023/12/17 19:50:32;;;;;;;27.63;11.07;;;6.60;99.90;;;;;;4932789;29;20646;-57
2023/12/17 19:52:59;;;;;;;28.73;11.20;;;6.60;99.90;;;;;;4934022;29;20187;-56
2023/12/17 19:55:25;;;;;;;28.47;12.43;;;6.60;99.90;;;;;;4933583;29;20199;-56
2023/12/17 19:57:50;;;;;;;29.10;11.13;;;6.70;99.90;;;;;;4933775;29;20261;-58
2023/12/17 20:00:16;;;;;;;32.37;13.00;;;6.70;99.90;;;;;;4932004;29;20219;-57
2023/12/17 20:02:42;;;;;;;30.63;12.30;;;6.60;99.90;;;;;;4933399;29;20719;-53
2023/12/17 20:05:09;;;;;;;33.43;11.30;;;6.60;99.90;;;;;;4933434;29;20187;-53
2023/12/17 20:07:34;;;;;;;25.50;10.33;;;6.70;99.90;;;;;;4932821;29;20183;-53
2023/12/17 20:10:00;;;;;;;25.03;10.57;;;6.70;99.90;;;;;;4933922;29;20216;-54
2023/12/17 20:12:25;;;;;;;24.07;10.03;;;6.70;99.90;;;;;;4933564;29;20183;-56
2023/12/17 20:14:51;;;;;;;30.13;10.67;;;6.70;99.90;;;;;;4933008;29;20211;-58
2023/12/17 20:17:17;;;;;;;27.33;9.97;;;6.70;99.90;;;;;;4932853;29;20195;-56
2023/12/17 20:19:42;;;;;;;26.07;9.50;;;6.70;99.90;;;;;;4932518;29;20219;-52
2023/12/17 20:22:08;;;;;;;18.83;8.07;;;6.60;99.90;;;;;;4933381;29;20652;-58
2023/12/17 20:24:34;;;;;;;19.40;8.27;;;6.60;99.90;;;;;;4932363;29;20187;-57
2023/12/17 20:26:59;;;;;;;21.80;9.20;;;6.60;99.90;;;;;;4933260;29;20181;-58
2023/12/17 20:29:25;;;;;;;20.27;9.10;;;6.70;99.90;;;;;;4932507;29;20526;-58
2023/12/17 20:31:51;;;;;;;14.70;6.20;;;6.70;99.90;;;;;;4933541;29;20188;-58
2023/12/17 20:34:16;;;;;;;18.47;6.50;;;6.60;99.90;;;;;;4933215;29;20203;-58
2023/12/17 20:36:42;;;;;;;13.73;6.27;;;6.60;99.90;;;;;;4933146;29;20187;-56
2023/12/17 20:39:07;;;;;;;12.90;5.33;;;6.60;99.90;;;;;;4932338;29;20210;-57
2023/12/17 20:41:33;;;;;;;13.60;6.03;;;6.60;99.90;;;;;;4932931;29;20222;-57
2023/12/17 20:43:59;;;;;;;15.33;6.50;;;6.70;99.90;;;;;;4933092;29;20656;-58